createdAt,value
2023-01-18T00:00:40.617Z,6.6
2023-01-18T00:04:40.553Z,6.7
2023-01-18T00:08:40.449Z,6.5
2023-01-18T00:12:40.494Z,6.2
2023-01-18T00:16:40.601Z,6.5
2023-01-18T00:20:40.646Z,6.97
2023-01-18T00:24:40.182Z,6.57
2023-01-18T00:28:39.332Z,6.93
2023-01-18T00:32:40.694Z,6.73
2023-01-18T00:36:40.521Z,7.73
2023-01-18T00:40:40.485Z,6.03
2023-01-18T00:44:40.447Z,6.37
2023-01-18T00:48:40.459Z,6.2
2023-01-18T00:52:40.670Z,7
2023-01-18T00:56:40.698Z,6.4
2023-01-18T01:00:40.655Z,6.13
2023-01-18T01:04:41.261Z,6.5
2023-01-18T01:08:40.533Z,6.47
2023-01-18T01:12:41.031Z,6.9
2023-01-18T01:16:41.228Z,6.6
2023-01-18T01:20:40.594Z,7.5
2023-01-18T01:24:40.510Z,6.37
2023-01-18T01:28:40.452Z,6.67
2023-01-18T01:32:40.546Z,7.33
2023-01-18T01:36:40.568Z,7.5
2023-01-18T01:40:40.457Z,9
2023-01-18T01:44:40.604Z,9.53
2023-01-18T01:48:40.480Z,8.5
2023-01-18T01:52:40.533Z,7.83
2023-01-18T01:56:40.557Z,8.33
2023-01-18T02:00:40.508Z,10.87
2023-01-18T02:04:40.715Z,10.7
2023-01-18T02:08:40.539Z,11.87
2023-01-18T02:12:40.662Z,10.67
2023-01-18T02:16:40.683Z,11
2023-01-18T02:20:40.448Z,11.4
2023-01-18T02:24:40.728Z,9.73
2023-01-18T02:28:40.562Z,10
2023-01-18T02:32:40.492Z,10.97
2023-01-18T02:36:40.007Z,9.8
2023-01-18T02:40:40.645Z,9.9
2023-01-18T02:44:40.695Z,10.1
2023-01-18T02:48:41.152Z,9.77
2023-01-18T02:52:40.513Z,10.23
2023-01-18T02:56:40.342Z,10.03
2023-01-18T03:00:40.551Z,10.13
2023-01-18T03:04:41.183Z,10.37
2023-01-18T03:08:40.494Z,12.5
2023-01-18T03:12:40.644Z,10.1
2023-01-18T03:16:40.561Z,10.7
2023-01-18T03:20:40.878Z,8.77
2023-01-18T03:24:40.696Z,10.4
2023-01-18T03:28:40.254Z,9.77
2023-01-18T03:32:40.992Z,10.87
2023-01-18T03:36:40.495Z,9.3
2023-01-18T03:40:40.253Z,11.17
2023-01-18T03:44:40.468Z,10.2
2023-01-18T03:48:40.558Z,8.77
2023-01-18T03:52:40.504Z,8.77
2023-01-18T03:56:40.684Z,10
2023-01-18T04:00:39.423Z,10.5
2023-01-18T04:04:41.044Z,10.3
2023-01-18T04:08:40.466Z,9.77
2023-01-18T04:12:40.521Z,10.37
2023-01-18T04:16:40.350Z,10.23
2023-01-18T04:20:40.555Z,10.43
2023-01-18T04:24:40.398Z,9.57
2023-01-18T04:28:40.507Z,10.43
2023-01-18T04:32:41.052Z,10.3
2023-01-18T04:36:40.743Z,9.67
2023-01-18T04:40:40.564Z,9.33
2023-01-18T04:44:40.488Z,10.07
2023-01-18T04:48:40.602Z,9.5
2023-01-18T04:52:40.575Z,8.87
2023-01-18T04:56:40.518Z,10.13
2023-01-18T05:00:40.929Z,9.17
2023-01-18T05:04:40.506Z,9.77
2023-01-18T05:08:40.570Z,9.97
2023-01-18T05:12:40.662Z,11
2023-01-18T05:16:40.711Z,10.03
2023-01-18T05:20:41.026Z,7.93
2023-01-18T05:24:40.751Z,8.67
2023-01-18T05:28:40.480Z,9.67
2023-01-18T05:32:40.476Z,11.1
2023-01-18T05:36:40.441Z,10.83
2023-01-18T05:40:40.423Z,11.2
2023-01-18T05:44:40.562Z,10.13
2023-01-18T05:48:40.587Z,9.53
2023-01-18T05:52:40.640Z,11.03
2023-01-18T05:56:40.537Z,8.5
2023-01-18T06:00:40.488Z,9.9
2023-01-18T06:04:41.130Z,8.93
2023-01-18T06:08:40.576Z,8.6
2023-01-18T06:12:39.819Z,10.03
2023-01-18T06:16:40.434Z,7.67
2023-01-18T06:20:40.173Z,8.57
2023-01-18T06:24:40.523Z,9.07
2023-01-18T06:28:40.691Z,8.6
2023-01-18T06:32:39.269Z,8.97
2023-01-18T06:36:40.877Z,8.3
2023-01-18T06:40:40.432Z,9.57
2023-01-18T06:44:40.574Z,9.23
2023-01-18T06:48:39.510Z,9.2
2023-01-18T06:52:40.532Z,8.4
2023-01-18T06:56:40.700Z,9.1
2023-01-18T07:00:40.614Z,10.5
2023-01-18T07:04:39.732Z,9.4
2023-01-18T07:08:40.376Z,10.03
2023-01-18T07:12:40.467Z,9.57
2023-01-18T07:16:40.808Z,8.43
2023-01-18T07:20:40.562Z,9.37
2023-01-18T07:24:40.617Z,10.4
2023-01-18T07:28:40.609Z,11.5
2023-01-18T07:32:39.903Z,9.9
2023-01-18T07:36:40.527Z,10.73
2023-01-18T07:40:40.666Z,10.27
2023-01-18T07:44:40.528Z,11.53
2023-01-18T07:48:40.506Z,10.3
2023-01-18T07:52:40.366Z,11.57
2023-01-18T07:56:40.721Z,10.47
2023-01-18T08:00:41.013Z,11
2023-01-18T08:04:41.200Z,13.13
2023-01-18T08:08:40.564Z,13.33
2023-01-18T08:12:40.598Z,11.7
2023-01-18T08:16:40.616Z,12.43
2023-01-18T08:20:39.599Z,12.17
2023-01-18T08:24:40.941Z,11.77
2023-01-18T08:28:40.479Z,13.67
2023-01-18T08:32:39.539Z,14
2023-01-18T08:36:40.963Z,14.87
2023-01-18T08:40:40.578Z,14.93
2023-01-18T08:44:40.914Z,14.4
2023-01-18T08:48:40.503Z,14.37
2023-01-18T08:52:40.668Z,14.7
2023-01-18T08:56:40.679Z,17.33
2023-01-18T09:00:40.621Z,16.1
2023-01-18T09:04:39.732Z,16.03
2023-01-18T09:08:40.301Z,17.67
2023-01-18T09:12:40.014Z,16.1
2023-01-18T09:16:40.640Z,18
2023-01-18T09:20:40.526Z,15.77
2023-01-18T09:24:40.504Z,16.47
2023-01-18T09:28:40.542Z,15.4
2023-01-18T09:32:42.418Z,16.37
2023-01-18T09:36:41.208Z,16
2023-01-18T09:40:40.579Z,17.17
2023-01-18T09:44:40.498Z,15.47
2023-01-18T09:48:40.832Z,15.07
2023-01-18T09:52:40.904Z,14.93
2023-01-18T09:56:40.639Z,14.67
2023-01-18T10:00:41.005Z,16
2023-01-18T10:04:40.280Z,14
2023-01-18T10:08:40.519Z,15.63
2023-01-18T10:12:40.583Z,15.47
2023-01-18T10:16:40.496Z,16.03
2023-01-18T10:20:40.634Z,18.8
2023-01-18T10:24:40.938Z,17.9
2023-01-18T10:28:40.443Z,17.63
2023-01-18T10:32:40.568Z,18.9
2023-01-18T10:36:40.537Z,16.6
2023-01-18T10:40:41.285Z,16.47
2023-01-18T10:44:40.340Z,18.13
2023-01-18T10:48:40.697Z,16.43
2023-01-18T10:52:40.522Z,7.43
2023-01-18T10:56:40.503Z,0.3
2023-01-18T11:00:40.987Z,0.4
2023-01-18T11:04:40.544Z,0.27
2023-01-18T11:08:40.577Z,0
2023-01-18T11:12:40.533Z,0.73
2023-01-18T11:16:41.114Z,0.1
2023-01-18T11:20:40.573Z,1.07
2023-01-18T11:24:40.742Z,1.2
2023-01-18T11:28:41.095Z,0.2
2023-01-18T11:32:40.528Z,2.3
2023-01-18T11:36:40.539Z,0.93
2023-01-18T11:40:40.884Z,0.4
2023-01-18T11:44:41.293Z,0.1
2023-01-18T11:48:40.479Z,0.1
2023-01-18T11:52:40.560Z,0.23
2023-01-18T11:56:40.293Z,2.83
2023-01-18T12:00:40.686Z,0.1
2023-01-18T12:04:40.509Z,0.2
2023-01-18T12:08:40.963Z,0.1
2023-01-18T12:12:40.535Z,0.03
2023-01-18T12:16:40.555Z,0.2
2023-01-18T12:20:40.596Z,4.7
2023-01-18T12:24:40.549Z,1.8
2023-01-18T12:28:40.573Z,0.1
2023-01-18T12:32:40.934Z,0.83
2023-01-18T12:36:40.451Z,0.1
2023-01-18T12:40:40.084Z,1.83
2023-01-18T12:44:40.852Z,0.1
2023-01-18T12:48:40.561Z,0.1
2023-01-18T12:52:40.591Z,0.3
2023-01-18T12:56:40.606Z,0.1
2023-01-18T13:00:40.624Z,4.4
2023-01-18T13:04:40.603Z,1.03
2023-01-18T13:08:41.657Z,0.3
2023-01-18T13:12:40.826Z,0.1
2023-01-18T13:16:40.326Z,0.5
2023-01-18T13:20:40.820Z,0.1
2023-01-18T13:24:41.031Z,0.1
2023-01-18T13:28:40.771Z,0.1
2023-01-18T13:32:40.724Z,0.1
2023-01-18T13:36:40.647Z,2
2023-01-18T13:40:40.837Z,0.3
2023-01-18T13:44:40.915Z,5
2023-01-18T13:48:40.553Z,0.1
2023-01-18T13:52:40.709Z,0.6
2023-01-18T13:56:40.630Z,0.17
2023-01-18T14:00:41.038Z,0.5
2023-01-18T14:04:40.500Z,0.4
2023-01-18T14:08:40.472Z,0.1
2023-01-18T14:12:40.843Z,0.6
2023-01-18T14:16:40.631Z,0.1
2023-01-18T14:20:40.684Z,0.17
2023-01-18T14:24:40.546Z,0.4
2023-01-18T14:28:40.542Z,0.47
2023-01-18T14:32:41.083Z,2.23
2023-01-18T14:36:40.500Z,0.1
2023-01-18T14:40:40.572Z,0.73
2023-01-18T14:44:56.659Z,0.1
2023-01-18T14:48:40.017Z,1.03
2023-01-18T14:52:40.734Z,0.2
2023-01-18T14:56:40.255Z,0.3
2023-01-18T15:00:40.471Z,4
2023-01-18T15:04:41.279Z,0.4
2023-01-18T15:08:40.671Z,0.1
2023-01-18T15:12:40.936Z,0.5
2023-01-18T15:16:40.692Z,0.1
2023-01-18T15:20:40.983Z,0.1
2023-01-18T15:24:40.350Z,0.97
2023-01-18T15:28:41.228Z,1.9
2023-01-18T15:32:40.466Z,2
2023-01-18T15:36:40.649Z,0.2
2023-01-18T15:40:40.273Z,0.1
2023-01-18T15:44:40.472Z,2
2023-01-18T15:48:40.595Z,0.5
2023-01-18T15:52:43.201Z,0.3
2023-01-18T15:56:40.431Z,0.1
2023-01-18T16:00:40.470Z,0.1
2023-01-18T16:04:40.683Z,2.13
2023-01-18T16:08:40.484Z,0.1
2023-01-18T16:12:40.510Z,0.1
2023-01-18T16:16:40.998Z,0.77
2023-01-18T16:20:40.494Z,0.1
2023-01-18T16:24:40.149Z,0.1
2023-01-18T16:28:41.214Z,0.2
2023-01-18T16:32:40.810Z,0.1
2023-01-18T16:36:42.273Z,0.3
2023-01-18T16:40:40.508Z,0.43
2023-01-18T16:44:40.478Z,0.1
2023-01-18T16:48:40.896Z,1.2
2023-01-18T16:52:40.638Z,0.1
2023-01-18T16:56:41.233Z,0.83
2023-01-18T17:00:40.986Z,0.2
2023-01-18T17:04:40.572Z,0.1
2023-01-18T17:08:40.570Z,0.4
2023-01-18T17:12:40.262Z,0.1
2023-01-18T17:16:40.691Z,0.13
2023-01-18T17:20:40.540Z,0.23
2023-01-18T17:24:40.669Z,0.4
2023-01-18T17:28:40.921Z,0.1
2023-01-18T17:32:40.880Z,1.1
2023-01-18T17:36:40.671Z,0.1
2023-01-18T17:40:44.023Z,0.1
2023-01-18T17:44:41.134Z,0.1
2023-01-18T17:48:40.477Z,0.1
2023-01-18T17:52:40.553Z,2.73
2023-01-18T17:56:40.542Z,1.57
2023-01-18T18:00:40.615Z,0.1
2023-01-18T18:04:40.740Z,3.1
2023-01-18T18:08:40.298Z,1.67
2023-01-18T18:12:40.651Z,0.37
2023-01-18T18:16:43.488Z,0.1
2023-01-18T18:20:40.597Z,0.1
2023-01-18T18:24:40.436Z,0.43
2023-01-18T18:28:40.400Z,2.37
2023-01-18T18:32:40.432Z,0.1
2023-01-18T18:36:40.672Z,0.1
2023-01-18T18:40:40.525Z,0.1
2023-01-18T18:44:40.548Z,0.43
2023-01-18T18:48:40.980Z,0.1
2023-01-18T18:52:40.472Z,0.1
2023-01-18T18:56:40.394Z,0.63
2023-01-18T19:00:41.123Z,0.1
2023-01-18T19:04:40.430Z,0.2
2023-01-18T19:08:40.595Z,1.9
2023-01-18T19:12:40.573Z,0.1
2023-01-18T19:16:41.361Z,0.4
2023-01-18T19:20:40.321Z,0.1
2023-01-18T19:24:40.465Z,0.1
2023-01-18T19:28:40.486Z,0.1
2023-01-18T19:32:40.411Z,0.1
2023-01-18T19:36:40.554Z,0.63
2023-01-18T19:40:40.545Z,0.2
2023-01-18T19:44:41.267Z,0.1
2023-01-18T19:48:40.553Z,0.27
2023-01-18T19:52:40.927Z,0.1
2023-01-18T19:56:40.268Z,0.1
2023-01-18T20:00:40.874Z,0.17
2023-01-18T20:04:40.824Z,0.1
2023-01-18T20:08:40.583Z,0.1
2023-01-18T20:12:40.651Z,0.1
2023-01-18T20:16:40.753Z,0.1
2023-01-18T20:20:40.517Z,0.1
2023-01-18T20:24:40.454Z,0.17
2023-01-18T20:28:40.770Z,3.7
2023-01-18T20:32:41.178Z,0.1
2023-01-18T20:36:40.575Z,0.1
2023-01-18T20:40:40.731Z,0.2
2023-01-18T20:44:40.683Z,0.1
2023-01-18T20:48:40.854Z,0.1
2023-01-18T20:52:40.876Z,0.1
2023-01-18T20:56:40.575Z,0.1
2023-01-18T21:00:40.673Z,0.1
2023-01-18T21:04:41.035Z,0.2
2023-01-18T21:08:40.585Z,0.1
2023-01-18T21:12:40.847Z,1.13
2023-01-18T21:16:41.254Z,0.17
2023-01-18T21:20:40.548Z,0.1
2023-01-18T21:24:40.488Z,0.1
2023-01-18T21:28:40.531Z,0.1
2023-01-18T21:32:40.601Z,0.1
2023-01-18T21:36:40.691Z,1.53
2023-01-18T21:40:40.500Z,0.1
2023-01-18T21:44:40.612Z,0.1
2023-01-18T21:48:40.647Z,2
2023-01-18T21:52:40.641Z,0.1
2023-01-18T21:56:40.250Z,0.1
2023-01-18T22:00:40.707Z,1.2
2023-01-18T22:04:40.536Z,0.1
2023-01-18T22:08:40.491Z,5.87
2023-01-18T22:12:40.580Z,0.57
2023-01-18T22:16:40.801Z,0.1
2023-01-18T22:20:40.558Z,0.33
2023-01-18T22:24:41.231Z,0.5
2023-01-18T22:28:40.603Z,0.1
2023-01-18T22:32:40.713Z,0.1
2023-01-18T22:36:40.535Z,0.2
2023-01-18T22:40:40.537Z,0.1
2023-01-18T22:44:40.667Z,1.27
2023-01-18T22:48:40.542Z,0.1
2023-01-18T22:52:40.569Z,0.1
2023-01-18T22:56:40.387Z,0.1
2023-01-18T23:00:40.468Z,0.27
2023-01-18T23:04:40.612Z,0.1
2023-01-18T23:08:40.695Z,0.1
2023-01-18T23:12:40.653Z,0.17
2023-01-18T23:16:40.635Z,0.1
2023-01-18T23:20:40.524Z,0.2
2023-01-18T23:24:40.678Z,0.1
2023-01-18T23:28:40.868Z,0.1
2023-01-18T23:32:40.506Z,0.1
2023-01-18T23:36:40.447Z,0.1
2023-01-18T23:40:40.461Z,0.1
2023-01-18T23:44:40.612Z,0.1
2023-01-18T23:48:40.506Z,0.47
2023-01-18T23:52:40.524Z,0.1
2023-01-18T23:56:40.732Z,0.1
